Time;durP1;ratioP1;P1;durP2;ratioP2;P2;SDS_P1;SDS_P2;PMS_P1;PMS_P2;Temp;Humidity;BMP_temperature;BMP_pressure;BME280_temperature;BME280_humidity;BME280_pressure;Samples;Min_cycle;Max_cycle;Signal;HPM_P1;HPM_P2
2023/06/13 00:00:52;;;;;;;;;;;;;;;27.52;43.31;101511.81;5065325;28;20031;-74
2023/06/13 00:03:19;;;;;;;;;;;;;;;27.52;43.48;101506.34;5034401;28;20267;-73
2023/06/13 00:05:46;;;;;;;;;;;;;;;27.51;43.67;101504.69;5068057;28;19913;-74
2023/06/13 00:08:17;;;;;;;;;;;;;;;27.50;43.59;101505.72;5060671;28;19921;-73
2023/06/13 00:10:43;;;;;;;;;;;;;;;27.49;43.52;101502.16;5033618;28;19917;-73
2023/06/13 00:13:08;;;;;;;;;;;;;;;27.48;43.56;101505.94;5055818;28;19913;-73
2023/06/13 00:15:35;;;;;;;;;;;;;;;27.48;43.42;101505.94;5052753;28;19928;-73
2023/06/13 00:18:01;;;;;;;;;;;;;;;27.46;43.56;101505.31;5057826;28;19983;-73
2023/06/13 00:20:26;;;;;;;;;;;;;;;27.46;43.52;101502.56;5060964;28;19919;-73
2023/06/13 00:22:52;;;;;;;;;;;;;;;27.45;43.22;101500.06;5065059;28;19972;-73
2023/06/13 00:25:17;;;;;;;;;;;;;;;27.44;43.46;101504.66;5069062;28;19992;-73
2023/06/13 00:27:42;;;;;;;;;;;;;;;27.44;43.48;101507.41;5044784;28;19917;-73
2023/06/13 00:30:07;;;;;;;;;;;;;;;27.42;43.46;101504.88;5044038;28;19959;-73
2023/06/13 00:32:32;;;;;;;;;;;;;;;27.42;43.36;101513.09;5051962;28;19917;-73
2023/06/13 00:34:58;;;;;;;;;;;;;;;27.41;43.43;101510.56;5063928;28;19935;-72
2023/06/13 00:37:23;;;;;;;;;;;;;;;27.41;43.30;101510.56;5057219;28;19980;-73
2023/06/13 00:39:49;;;;;;;;;;;;;;;27.39;43.35;101507.19;5071920;28;19921;-73
2023/06/13 00:42:14;;;;;;;;;;;;;;;27.39;43.06;101507.19;5040856;28;19920;-73
2023/06/13 00:44:39;;;;;;;;;;;;;;;27.39;43.33;101512.66;5051931;28;19917;-73
2023/06/13 00:47:05;;;;;;;;;;;;;;;27.37;43.28;101512.88;5062591;28;19917;-73
2023/06/13 00:49:30;;;;;;;;;;;;;;;27.37;43.12;101509.31;5057377;28;19963;-73
2023/06/13 00:51:58;;;;;;;;;;;;;;;27.36;43.15;101513.94;5051598;28;19935;-73
2023/06/13 00:54:23;;;;;;;;;;;;;;;27.36;43.21;101510.38;5059155;28;20286;-73
2023/06/13 00:56:48;;;;;;;;;;;;;;;27.34;43.12;101512.47;5062605;28;19942;-74
2023/06/13 00:59:14;;;;;;;;;;;;;;;27.34;42.94;101512.47;5064134;28;19924;-73
2023/06/13 01:01:43;;;;;;;;;;;;;;;27.34;43.06;101517.91;5049305;28;19921;-73
2023/06/13 01:04:08;;;;;;;;;;;;;;;27.33;42.89;101511.63;5058923;28;20365;-73
2023/06/13 01:06:38;;;;;;;;;;;;;;;27.31;42.75;101502.78;5070679;28;19913;-72
2023/06/13 01:09:04;;;;;;;;;;;;;;;27.31;42.77;101501.94;5042399;28;19963;-73
2023/06/13 01:11:35;;;;;;;;;;;;;;;27.31;42.91;101510.13;5048466;28;19978;-73
2023/06/13 01:14:03;;;;;;;;;;;;;;;27.30;42.84;101511.19;5065350;28;19921;-73
2023/06/13 01:16:29;;;;;;;;;;;;;;;27.30;42.89;101505.72;5055503;28;19948;-73
2023/06/13 01:18:54;;;;;;;;;;;;;;;27.28;42.97;101502.38;5053738;28;19924;-72
2023/06/13 01:21:20;;;;;;;;;;;;;;;27.27;42.83;101498.81;5057074;28;20430;-73
2023/06/13 01:23:54;;;;;;;;;;;;;;;27.27;42.62;101500.69;5046196;28;19917;-73
2023/06/13 01:26:20;;;;;;;;;;;;;;;27.27;42.50;101493.38;5063113;28;19976;-73
2023/06/13 01:28:51;;;;;;;;;;;;;;;27.25;42.75;101500.91;5065069;28;19999;-73
2023/06/13 01:31:17;;;;;;;;;;;;;;;27.25;42.77;101502.81;5057791;28;19917;-73
2023/06/13 01:33:42;;;;;;;;;;;;;;;27.24;42.54;101496.50;5049713;28;19966;-73
2023/06/13 01:36:07;;;;;;;;;;;;;;;27.23;42.78;101492.09;5059924;28;19913;-72
2023/06/13 01:38:32;;;;;;;;;;;;;;;27.22;42.40;101495.84;5045839;28;19918;-73
2023/06/13 01:40:57;;;;;;;;;;;;;;;27.22;42.57;101490.41;5063779;28;19921;-73
2023/06/13 01:43:23;;;;;;;;;;;;;;;27.20;42.54;101489.78;5053317;28;20011;-73
2023/06/13 01:45:49;;;;;;;;;;;;;;;27.20;42.47;101491.69;5069784;28;20001;-73
2023/06/13 01:48:17;;;;;;;;;;;;;;;27.19;42.45;101496.31;5058519;28;19944;-73
2023/06/13 01:50:50;;;;;;;;;;;;;;;27.17;42.63;101496.50;5061804;28;19919;-73
2023/06/13 01:53:23;;;;;;;;;;;;;;;27.18;42.36;101491.88;5069619;28;19999;-73
2023/06/13 01:55:51;;;;;;;;;;;;;;;27.17;42.51;101491.03;5038460;28;20350;-73
2023/06/13 01:58:17;;;;;;;;;;;;;;;27.16;42.34;101492.09;5036208;28;19923;-74
2023/06/13 02:00:42;;;;;;;;;;;;;;;27.15;42.40;101487.69;5051836;28;19917;-73
2023/06/13 02:03:07;;;;;;;;;;;;;;;27.15;42.24;101489.59;5053905;28;19920;-73
2023/06/13 02:05:32;;;;;;;;;;;;;;;27.14;42.35;101487.88;5064903;28;19956;-73
2023/06/13 02:07:58;;;;;;;;;;;;;;;27.13;42.34;101483.47;5073008;28;19913;-72
2023/06/13 02:10:24;;;;;;;;;;;;;;;27.12;42.08;101493.56;5057140;28;19917;-73
2023/06/13 02:12:49;;;;;;;;;;;;;;;27.12;42.16;101488.09;5057633;28;19931;-72
2023/06/13 02:15:14;;;;;;;;;;;;;;;27.12;42.38;101492.72;5046154;28;20349;-74
2023/06/13 02:17:40;;;;;;;;;;;;;;;27.12;42.33;101492.72;5062291;28;19952;-73
2023/06/13 02:20:06;;;;;;;;;;;;;;;27.10;42.28;101495.66;5055657;28;20440;-73
2023/06/13 02:22:31;;;;;;;;;;;;;;;27.10;42.06;101494.81;5064556;28;19913;-73
2023/06/13 02:24:57;;;;;;;;;;;;;;;27.10;42.16;101497.53;5064438;28;19912;-73
2023/06/13 02:27:22;;;;;;;;;;;;;;;27.09;42.12;101501.28;5050429;28;19913;-73
2023/06/13 02:29:48;;;;;;;;;;;;;;;27.08;42.23;101495.00;5067644;28;19924;-73
2023/06/13 02:32:13;;;;;;;;;;;;;;;27.08;42.02;101497.72;5059949;28;19913;-72
2023/06/13 02:34:38;;;;;;;;;;;;;;;27.07;41.82;101496.03;5076162;28;19943;-73
2023/06/13 02:37:04;;;;;;;;;;;;;;;27.07;41.85;101497.94;5060118;28;19913;-74
2023/06/13 02:39:29;;;;;;;;;;;;;;;27.07;42.10;101493.31;5065537;28;19977;-73
2023/06/13 02:41:54;;;;;;;;;;;;;;;27.05;41.98;101500.84;5067476;28;19916;-73
2023/06/13 02:44:19;;;;;;;;;;;;;;;27.05;41.77;101494.56;5061097;28;20331;-73
2023/06/13 02:46:44;;;;;;;;;;;;;;;27.05;41.89;101495.41;5071336;28;20262;-73
2023/06/13 02:49:13;;;;;;;;;;;;;;;27.04;41.75;101496.44;5044463;28;19924;-73
2023/06/13 02:51:38;;;;;;;;;;;;;;;27.03;41.69;101492.06;5064350;28;19913;-73
2023/06/13 02:54:03;;;;;;;;;;;;;;;27.04;41.63;101492.88;5065565;28;19920;-73
2023/06/13 02:56:29;;;;;;;;;;;;;;;27.03;41.72;101494.78;5069341;28;19923;-72
2023/06/13 02:58:54;;;;;;;;;;;;;;;27.03;41.71;101499.41;5059541;28;19916;-72
2023/06/13 03:01:19;;;;;;;;;;;;;;;27.02;41.93;101498.56;5071149;28;19917;-73
2023/06/13 03:03:47;;;;;;;;;;;;;;;27.01;41.74;101493.28;5063804;28;19930;-73
2023/06/13 03:06:12;;;;;;;;;;;;;;;27.00;41.61;101500.66;5062799;28;20010;-73
2023/06/13 03:08:38;;;;;;;;;;;;;;;27.01;41.79;101496.88;5071047;28;19913;-74
2023/06/13 03:11:03;;;;;;;;;;;;;;;27.00;41.56;101502.53;5057110;28;19963;-73
2023/06/13 03:13:28;;;;;;;;;;;;;;;26.99;41.52;101507.16;5054936;28;20051;-73
2023/06/13 03:15:56;;;;;;;;;;;;;;;26.99;41.74;101501.72;5062123;28;19943;-73
2023/06/13 03:18:23;;;;;;;;;;;;;;;26.97;41.73;101503.78;5063637;28;19924;-74
2023/06/13 03:20:48;;;;;;;;;;;;;;;26.98;41.64;101501.94;5067157;28;19921;-73
2023/06/13 03:23:14;;;;;;;;;;;;;;;26.97;41.61;101501.06;5066678;28;19966;-74
2023/06/13 03:25:40;;;;;;;;;;;;;;;26.95;41.37;101497.72;5058949;28;20366;-73
2023/06/13 03:28:05;;;;;;;;;;;;;;;26.95;41.61;101500.44;5070236;28;20011;-74
2023/06/13 03:30:31;;;;;;;;;;;;;;;26.95;41.47;101499.59;5065548;28;19913;-72
2023/06/13 03:32:56;;;;;;;;;;;;;;;26.94;41.57;101492.47;5058409;28;19919;-74
2023/06/13 03:35:21;;;;;;;;;;;;;;;26.93;41.36;101494.34;5072773;28;19967;-71
2023/06/13 03:37:46;;;;;;;;;;;;;;;26.92;41.36;101496.22;5050388;28;19917;-73
2023/06/13 03:40:11;;;;;;;;;;;;;;;26.91;41.40;101497.28;5066903;28;19917;-73
2023/06/13 03:42:37;;;;;;;;;;;;;;;26.90;41.40;101506.53;5066885;28;20354;-73
2023/06/13 03:45:02;;;;;;;;;;;;;;;26.90;41.30;101503.78;5061863;28;19913;-73
2023/06/13 03:47:27;;;;;;;;;;;;;;;26.90;41.35;101508.41;5065218;28;19971;-73
2023/06/13 03:49:52;;;;;;;;;;;;;;;26.88;41.60;101505.88;5063579;28;19913;-73
2023/06/13 03:52:17;;;;;;;;;;;;;;;26.88;41.32;101503.16;5061948;28;19913;-72
2023/06/13 03:54:43;;;;;;;;;;;;;;;26.87;41.54;101503.38;5063561;28;20015;-71
2023/06/13 03:57:08;;;;;;;;;;;;;;;26.85;41.37;101502.75;5068199;28;19927;-73
2023/06/13 03:59:33;;;;;;;;;;;;;;;26.83;41.56;101508.38;5028876;28;20297;-72
2023/06/13 04:01:58;;;;;;;;;;;;;;;26.82;41.50;101506.72;5073534;28;20390;-73
2023/06/13 04:04:26;;;;;;;;;;;;;;;26.82;41.53;101508.59;5060459;28;19920;-73
2023/06/13 04:06:52;;;;;;;;;;;;;;;26.80;41.38;101511.53;5063180;28;20334;-73
2023/06/13 04:09:17;;;;;;;;;;;;;;;26.80;41.57;101516.16;5069331;28;19936;-73
2023/06/13 04:11:42;;;;;;;;;;;;;;;26.79;41.39;101517.19;5058628;28;19915;-73
2023/06/13 04:14:08;;;;;;;;;;;;;;;26.78;41.38;101518.25;5047642;28;19921;-73
2023/06/13 04:16:33;;;;;;;;;;;;;;;26.77;41.29;101519.31;5061122;28;19916;-73
2023/06/13 04:19:01;;;;;;;;;;;;;;;26.75;41.56;101513.19;5065668;28;20255;-73
2023/06/13 04:21:26;;;;;;;;;;;;;;;26.75;41.43;101510.47;5043857;28;19921;-73
2023/06/13 04:23:52;;;;;;;;;;;;;;;26.74;41.46;101506.06;5053701;28;19975;-72
2023/06/13 04:26:17;;;;;;;;;;;;;;;26.73;41.46;101512.59;5056314;28;19913;-72
2023/06/13 04:28:42;;;;;;;;;;;;;;;26.72;41.45;101511.75;5069191;28;20846;-72
2023/06/13 04:31:08;;;;;;;;;;;;;;;26.71;41.43;101511.94;5065692;28;19919;-73
2023/06/13 04:33:33;;;;;;;;;;;;;;;26.71;41.46;101514.66;5036109;28;19920;-73
2023/06/13 04:36:03;;;;;;;;;;;;;;;26.71;41.53;101511.94;5069173;28;19917;-73
2023/06/13 04:38:29;;;;;;;;;;;;;;;26.70;41.32;101507.53;5061752;28;19921;-73
2023/06/13 04:40:54;;;;;;;;;;;;;;;26.69;41.53;101509.41;5067946;28;19920;-73
2023/06/13 04:43:21;;;;;;;;;;;;;;;26.68;41.41;101507.75;5064445;28;19987;-74
2023/06/13 04:45:46;;;;;;;;;;;;;;;26.68;41.41;101505.03;5063617;28;19913;-73
2023/06/13 04:48:11;;;;;;;;;;;;;;;26.68;41.46;101513.22;5043965;28;19913;-72
2023/06/13 04:50:40;;;;;;;;;;;;;;;26.66;41.41;101505.22;5066668;28;19984;-73
2023/06/13 04:53:07;;;;;;;;;;;;;;;26.66;41.18;101507.09;5059641;28;19913;-72
2023/06/13 04:55:35;;;;;;;;;;;;;;;26.65;41.30;101506.25;5062471;28;19913;-73
2023/06/13 04:58:00;;;;;;;;;;;;;;;26.64;41.38;101504.59;5067015;28;19917;-72
2023/06/13 05:00:25;;;;;;;;;;;;;;;26.64;41.16;101501.03;5051176;28;20415;-72
2023/06/13 05:02:51;;;;;;;;;;;;;;;26.64;41.32;101512.78;5074518;28;20388;-73
2023/06/13 05:05:18;;;;;;;;;;;;;;;26.63;41.37;101505.63;5043422;28;19917;-72
2023/06/13 05:07:43;;;;;;;;;;;;;;;26.63;41.33;101512.97;5062621;28;19917;-73
2023/06/13 05:10:08;;;;;;;;;;;;;;;26.62;41.20;101512.13;5048299;28;19945;-73
2023/06/13 05:12:33;;;;;;;;;;;;;;;26.61;41.15;101513.16;5060894;28;19947;-72
2023/06/13 05:14:59;;;;;;;;;;;;;;;26.61;41.48;101513.16;5063280;28;20011;-72
2023/06/13 05:17:27;;;;;;;;;;;;;;;26.61;41.33;101507.72;5045335;28;19956;-72
2023/06/13 05:19:53;;;;;;;;;;;;;;;26.60;41.18;101511.50;5060662;28;19925;-72
2023/06/13 05:22:18;;;;;;;;;;;;;;;26.61;41.13;101512.34;5051154;28;19987;-72
2023/06/13 05:24:44;;;;;;;;;;;;;;;26.61;41.20;101515.91;5068876;28;19912;-74
2023/06/13 05:27:09;;;;;;;;;;;;;;;26.60;41.38;101516.94;5058749;28;19970;-73
2023/06/13 05:29:34;;;;;;;;;;;;;;;26.61;41.23;101518.63;5073095;28;19917;-72
2023/06/13 05:31:59;;;;;;;;;;;;;;;26.60;41.19;101511.50;5048456;28;19924;-73
2023/06/13 05:34:26;;;;;;;;;;;;;;;26.61;40.96;101513.16;5061814;28;20278;-72
2023/06/13 05:36:52;;;;;;;;;;;;;;;26.60;41.18;101521.56;5073670;28;19966;-72
2023/06/13 05:39:18;;;;;;;;;;;;;;;26.60;41.32;101521.56;5065401;28;20336;-71
2023/06/13 05:41:43;;;;;;;;;;;;;;;26.60;41.14;101527.03;5065478;28;19959;-72
2023/06/13 05:44:08;;;;;;;;;;;;;;;26.59;41.14;101523.47;5051890;28;19913;-72
2023/06/13 05:46:33;;;;;;;;;;;;;;;26.59;41.25;101520.72;5069287;28;19921;-73
2023/06/13 05:48:59;;;;;;;;;;;;;;;26.59;41.22;101525.31;5064278;28;19924;-73
2023/06/13 05:51:24;;;;;;;;;;;;;;;26.59;41.14;101528.03;5055415;28;19966;-73
2023/06/13 05:53:50;;;;;;;;;;;;;;;26.58;41.22;101526.38;5061266;28;19917;-72
2023/06/13 05:56:15;;;;;;;;;;;;;;;26.58;41.32;101524.47;5067714;28;19952;-72
2023/06/13 05:58:41;;;;;;;;;;;;;;;26.58;41.13;101535.38;5068791;28;19924;-72
2023/06/13 06:01:06;;;;;;;;;;;;;;;26.58;41.31;101534.56;5061139;28;19939;-72
2023/06/13 06:03:33;;;;;;;;;;;;;;;26.57;41.20;101531.00;5076984;28;19912;-73
2023/06/13 06:05:58;;;;;;;;;;;;;;;26.58;41.40;101534.56;5062729;28;20254;-72
2023/06/13 06:08:24;;;;;;;;;;;;;;;26.57;41.38;101532.88;5068015;28;20486;-71
2023/06/13 06:10:49;;;;;;;;;;;;;;;26.56;41.39;101526.59;5068571;28;20325;-72
2023/06/13 06:13:14;;;;;;;;;;;;;;;26.54;41.27;101527.81;5067220;28;19913;-72
2023/06/13 06:15:40;;;;;;;;;;;;;;;26.55;41.12;101527.63;5061272;28;19925;-73
2023/06/13 06:18:05;;;;;;;;;;;;;;;26.54;41.18;101527.81;5069164;28;19951;-72
2023/06/13 06:20:30;;;;;;;;;;;;;;;26.54;41.28;101527.81;5065248;28;19924;-72
2023/06/13 06:22:56;;;;;;;;;;;;;;;26.53;41.41;101524.25;5050675;28;19922;-73
2023/06/13 06:25:21;;;;;;;;;;;;;;;26.53;41.29;101523.44;5070073;28;19921;-73
2023/06/13 06:27:46;;;;;;;;;;;;;;;26.51;41.30;101520.91;5058213;28;19939;-72
2023/06/13 06:30:12;;;;;;;;;;;;;;;26.51;41.37;101517.34;5056264;28;19919;-73
2023/06/13 06:32:37;;;;;;;;;;;;;;;26.52;41.55;101524.47;5065609;28;19922;-72
2023/06/13 06:35:03;;;;;;;;;;;;;;;26.50;41.59;101524.66;5043651;28;20378;-72
2023/06/13 06:37:29;;;;;;;;;;;;;;;26.50;41.56;101523.81;5054151;28;19920;-72
2023/06/13 06:39:54;;;;;;;;;;;;;;;26.49;41.61;101528.44;5064874;28;19916;-72
2023/06/13 06:42:19;;;;;;;;;;;;;;;26.48;41.33;101526.78;5053363;28;19921;-72
2023/06/13 06:44:45;;;;;;;;;;;;;;;26.48;41.50;101528.66;5071259;28;19916;-73
2023/06/13 06:47:10;;;;;;;;;;;;;;;26.47;41.57;101533.28;5067782;28;19917;-73
2023/06/13 06:49:35;;;;;;;;;;;;;;;26.47;41.48;101529.72;5040204;28;19916;-72
2023/06/13 06:52:00;;;;;;;;;;;;;;;26.47;41.42;101537.88;5075545;28;19908;-72
2023/06/13 06:54:26;;;;;;;;;;;;;;;26.45;41.48;101532.63;5060109;28;19913;-72
2023/06/13 06:56:51;;;;;;;;;;;;;;;26.46;41.39;101541.63;5074812;28;19921;-72
2023/06/13 06:59:16;;;;;;;;;;;;;;;26.45;41.55;101534.50;5049868;28;19924;-72
2023/06/13 07:01:41;;;;;;;;;;;;;;;26.45;41.52;101542.69;5059075;28;19947;-73
2023/06/13 07:04:07;;;;;;;;;;;;;;;26.43;41.45;101538.25;5052632;28;19956;-72
2023/06/13 07:06:32;;;;;;;;;;;;;;;26.43;41.62;101542.88;5047284;28;19935;-73
2023/06/13 07:08:57;;;;;;;;;;;;;;;26.43;41.46;101537.41;5063668;28;19999;-73
2023/06/13 07:11:22;;;;;;;;;;;;;;;26.42;41.58;101546.63;5064235;28;19913;-73
2023/06/13 07:13:47;;;;;;;;;;;;;;;26.43;41.47;101540.16;5066665;28;19916;-72
2023/06/13 07:16:12;;;;;;;;;;;;;;;26.42;41.63;101547.50;5059070;28;19916;-72
2023/06/13 07:18:38;;;;;;;;;;;;;;;26.41;41.60;101542.22;5075380;28;19917;-73
2023/06/13 07:21:03;;;;;;;;;;;;;;;26.41;41.48;101542.22;5063128;28;20424;-73
2023/06/13 07:23:28;;;;;;;;;;;;;;;26.40;41.51;101544.09;5058514;28;19920;-73
2023/06/13 07:25:53;;;;;;;;;;;;;;;26.40;41.66;101546.84;5058122;28;19980;-73
2023/06/13 07:28:18;;;;;;;;;;;;;;;26.40;41.69;101544.09;5051851;28;19923;-72
2023/06/13 07:30:43;;;;;;;;;;;;;;;26.39;41.69;101539.72;5066426;28;19938;-72
2023/06/13 07:33:09;;;;;;;;;;;;;;;26.40;41.58;101543.28;5062945;28;20442;-73
2023/06/13 07:35:34;;;;;;;;;;;;;;;26.40;41.94;101543.28;5066381;28;19917;-72
2023/06/13 07:37:59;;;;;;;;;;;;;;;26.38;41.59;101540.75;5065555;28;19939;-72
2023/06/13 07:40:24;;;;;;;;;;;;;;;26.39;41.72;101538.88;5053206;28;19917;-72
2023/06/13 07:42:50;;;;;;;;;;;;;;;26.38;41.63;101539.91;5059306;28;19999;-74
2023/06/13 07:45:15;;;;;;;;;;;;;;;26.39;41.76;101533.41;5067575;28;19913;-73
2023/06/13 07:47:40;;;;;;;;;;;;;;;26.39;41.64;101536.16;5067642;28;19912;-72
2023/06/13 07:50:06;;;;;;;;;;;;;;;26.38;41.64;101534.47;5060597;28;19959;-73
2023/06/13 07:52:32;;;;;;;;;;;;;;;26.38;41.61;101534.47;5073905;28;19917;-72
2023/06/13 07:54:57;;;;;;;;;;;;;;;26.38;41.61;101545.38;5059042;28;19917;-72
2023/06/13 07:57:22;;;;;;;;;;;;;;;26.37;41.77;101533.59;5067112;28;19923;-73
2023/06/13 07:59:47;;;;;;;;;;;;;;;26.37;41.73;101536.31;5066661;28;19953;-72
2023/06/13 08:02:13;;;;;;;;;;;;;;;26.37;41.63;101536.31;5050779;28;19912;-72
2023/06/13 08:04:38;;;;;;;;;;;;;;;26.37;41.78;101539.06;5066393;28;19919;-71
2023/06/13 08:07:04;;;;;;;;;;;;;;;26.37;41.59;101538.22;5067096;28;20517;-72
2023/06/13 08:09:29;;;;;;;;;;;;;;;26.37;41.73;101540.94;5062886;28;19924;-71
2023/06/13 08:11:54;;;;;;;;;;;;;;;26.37;41.84;101539.06;5064037;28;19913;-71
2023/06/13 08:14:19;;;;;;;;;;;;;;;26.36;41.65;101531.94;5071091;28;19929;-71
2023/06/13 08:16:45;;;;;;;;;;;;;;;26.38;41.81;101534.47;5054108;28;19913;-72
2023/06/13 08:19:10;;;;;;;;;;;;;;;26.38;41.83;101532.59;5073053;28;19960;-72
2023/06/13 08:21:35;;;;;;;;;;;;;;;26.37;41.66;101528.16;5061901;28;19928;-73
2023/06/13 08:24:00;;;;;;;;;;;;;;;26.38;41.67;101527.13;5062867;28;19928;-73
2023/06/13 08:26:27;;;;;;;;;;;;;;;26.38;41.70;101526.28;5056668;28;19913;-72
2023/06/13 08:28:53;;;;;;;;;;;;;;;26.38;41.87;101526.28;5033294;28;19952;-72
2023/06/13 08:31:23;;;;;;;;;;;;;;;26.37;41.85;101541.78;5065807;28;20441;-73
2023/06/13 08:33:49;;;;;;;;;;;;;;;26.39;41.66;101536.16;5070852;28;19912;-73
2023/06/13 08:36:14;;;;;;;;;;;;;;;26.38;41.79;101526.28;5065381;28;19956;-72
2023/06/13 08:38:39;;;;;;;;;;;;;;;26.37;41.94;101528.16;5058974;28;19928;-73
2023/06/13 08:41:05;;;;;;;;;;;;;;;26.38;41.88;101529.00;5070241;28;19916;-72
2023/06/13 08:43:30;;;;;;;;;;;;;;;26.38;41.75;101529.00;5049286;28;19924;-73
2023/06/13 08:45:56;;;;;;;;;;;;;;;26.38;41.72;101526.28;5051671;28;19913;-73
2023/06/13 08:48:21;;;;;;;;;;;;;;;26.37;41.76;101525.41;5066762;28;19912;-72
2023/06/13 08:50:46;;;;;;;;;;;;;;;26.38;41.96;101521.69;5058508;28;19917;-73
2023/06/13 08:53:13;;;;;;;;;;;;;;;26.38;41.82;101518.94;5069998;28;19924;-73
2023/06/13 08:55:40;;;;;;;;;;;;;;;26.38;41.90;101527.13;5040756;28;19924;-73
2023/06/13 08:58:05;;;;;;;;;;;;;;;26.38;41.95;101527.13;5048555;28;19963;-73
2023/06/13 09:00:35;;;;;;;;;;;;;;;26.39;42.06;101519.78;5049999;28;19916;-73
2023/06/13 09:03:00;;;;;;;;;;;;;;;26.39;41.99;101520.63;5065766;28;19920;-73
2023/06/13 09:05:25;;;;;;;;;;;;;;;26.39;41.99;101519.78;5048977;28;19951;-73
2023/06/13 09:07:51;;;;;;;;;;;;;;;26.39;42.06;101517.06;5054388;28;19916;-73
2023/06/13 09:10:16;;;;;;;;;;;;;;;26.39;41.90;101509.72;5060699;28;19919;-73
2023/06/13 09:12:42;;;;;;;;;;;;;;;26.40;42.07;101516.84;5048554;28;20401;-72
2023/06/13 09:15:08;;;;;;;;;;;;;;;26.40;41.92;101508.66;5067950;28;19925;-72
2023/06/13 09:17:33;;;;;;;;;;;;;;;26.41;42.04;101512.22;5035374;28;19928;-73
2023/06/13 09:19:59;;;;;;;;;;;;;;;26.41;41.87;101509.50;5073369;28;21002;-73
2023/06/13 09:22:26;;;;;;;;;;;;;;;26.41;42.10;101506.78;5058390;28;20016;-73
2023/06/13 09:24:51;;;;;;;;;;;;;;;26.40;41.90;101505.94;5031740;28;19939;-73
2023/06/13 09:27:16;;;;;;;;;;;;;;;26.42;41.89;101513.91;5067078;28;19912;-72
2023/06/13 09:29:42;;;;;;;;;;;;;;;26.42;42.04;101511.16;5046046;28;19913;-72
2023/06/13 09:32:09;;;;;;;;;;;;;;;26.41;41.97;101504.88;5062455;28;19920;-72
2023/06/13 09:34:34;;;;;;;;;;;;;;;26.42;42.13;101503.00;5049114;28;20332;-72
2023/06/13 09:36:59;;;;;;;;;;;;;;;26.42;42.10;101509.31;5045938;28;19918;-72
2023/06/13 09:39:25;;;;;;;;;;;;;;;26.42;42.25;101503.88;5057558;28;19917;-72
2023/06/13 09:41:55;;;;;;;;;;;;;;;26.43;42.03;101501.97;5069792;28;19916;-72
2023/06/13 09:44:21;;;;;;;;;;;;;;;26.43;42.27;101512.88;5053927;28;19917;-72
2023/06/13 09:46:46;;;;;;;;;;;;;;;26.45;42.34;101512.69;5049518;28;19972;-73
2023/06/13 09:49:11;;;;;;;;;;;;;;;26.45;42.34;101507.25;5062270;28;19917;-73
2023/06/13 09:51:37;;;;;;;;;;;;;;;26.45;42.15;101501.78;5059768;28;19963;-73
2023/06/13 09:54:02;;;;;;;;;;;;;;;26.44;42.18;101498.22;5070398;28;20004;-72
2023/06/13 09:56:27;;;;;;;;;;;;;;;26.45;42.47;101494.44;5043461;28;19966;-73
2023/06/13 09:58:52;;;;;;;;;;;;;;;26.46;42.33;101493.41;5060737;28;19921;-73
2023/06/13 10:01:18;;;;;;;;;;;;;;;26.46;42.28;101489.84;5062195;28;19999;-73
2023/06/13 10:03:44;;;;;;;;;;;;;;;26.46;42.35;101485.22;5065389;28;19917;-73
2023/06/13 10:06:09;;;;;;;;;;;;;;;26.47;42.42;101486.09;5058984;28;19917;-73
2023/06/13 10:08:34;;;;;;;;;;;;;;;26.47;42.56;101483.34;5071059;28;19944;-74
2023/06/13 10:11:06;;;;;;;;;;;;;;;26.48;42.51;101487.75;5041036;28;20011;-73
2023/06/13 10:13:32;;;;;;;;;;;;;;;26.48;42.57;101488.59;5049782;28;19987;-73
2023/06/13 10:15:57;;;;;;;;;;;;;;;26.49;42.54;101497.59;5069120;28;19920;-72
2023/06/13 10:18:25;;;;;;;;;;;;;;;26.49;42.57;101481.25;5060243;28;19912;-72
2023/06/13 10:20:50;;;;;;;;;;;;;;;26.50;42.26;101478.31;5053054;28;19917;-72
2023/06/13 10:23:15;;;;;;;;;;;;;;;26.51;42.58;101481.91;5061578;28;19917;-73
2023/06/13 10:25:41;;;;;;;;;;;;;;;26.51;42.50;101481.91;5065215;28;19944;-72
2023/06/13 10:28:17;;;;;;;;;;;;;;;26.53;42.47;101471.63;5067704;28;19925;-72
2023/06/13 10:30:52;;;;;;;;;;;;;;;26.52;42.54;101473.50;5050334;28;19920;-73
2023/06/13 10:33:20;;;;;;;;;;;;;;;26.52;42.60;101475.38;5061372;28;19984;-73
2023/06/13 10:35:45;;;;;;;;;;;;;;;26.54;42.61;101478.75;5072490;28;19912;-73
2023/06/13 10:38:33;;;;;;;;;;;;;;;26.55;42.68;101477.69;5062523;28;19913;-72
2023/06/13 10:41:05;;;;;;;;;;;;;;;26.57;42.57;101478.34;5072276;28;19938;-72
2023/06/13 10:43:40;;;;;;;;;;;;;;;26.57;42.65;101472.88;5062889;28;19916;-72
2023/06/13 10:46:07;;;;;;;;;;;;;;;26.58;42.65;101474.56;5038867;28;20000;-72
2023/06/13 10:48:38;;;;;;;;;;;;;;;26.60;42.68;101467.03;5073353;28;19924;-73
2023/06/13 10:51:04;;;;;;;;;;;;;;;26.60;42.81;101472.47;5061174;28;20043;-73
2023/06/13 10:53:32;;;;;;;;;;;;;;;26.62;42.83;101462.19;5065085;28;19912;-73
2023/06/13 10:55:59;;;;;;;;;;;;;;;26.63;42.74;101474.78;5042718;28;19980;-72
2023/06/13 10:58:25;;;;;;;;;;;;;;;26.64;42.75;101466.41;5068935;28;19923;-72
2023/06/13 11:00:50;;;;;;;;;;;;;;;26.66;42.55;101466.19;5046265;28;19912;-73
2023/06/13 11:03:15;;;;;;;;;;;;;;;26.66;42.78;101466.19;5054222;28;19977;-73
2023/06/13 11:05:43;;;;;;;;;;;;;;;26.69;42.81;101457.59;5059827;28;19914;-73
2023/06/13 11:08:14;;;;;;;;;;;;;;;26.70;42.87;101451.09;5069005;28;19912;-73
2023/06/13 11:10:39;;;;;;;;;;;;;;;26.71;42.67;101452.75;5067789;28;19917;-73
2023/06/13 11:13:04;;;;;;;;;;;;;;;26.73;42.86;101447.13;5057808;28;20046;-73
2023/06/13 11:15:29;;;;;;;;;;;;;;;26.75;42.83;101442.28;5073212;28;20007;-72
2023/06/13 11:18:20;;;;;;;;;;;;;;;26.76;42.85;101442.09;5059607;28;19921;-73
2023/06/13 11:20:57;;;;;;;;;;;;;;;26.78;42.77;101442.69;5068025;28;20071;-73
2023/06/13 11:23:23;;;;;;;;;;;;;;;26.80;42.83;101439.75;5043867;28;19917;-73
2023/06/13 11:25:48;;;;;;;;;;;;;;;26.81;42.64;101442.28;5049479;28;19917;-73
2023/06/13 11:28:14;;;;;;;;;;;;;;;26.82;42.96;101438.50;5063547;28;19966;-73
2023/06/13 11:30:44;;;;;;;;;;;;;;;26.84;42.75;101441.00;5069603;28;19969;-73
2023/06/13 11:33:09;;;;;;;;;;;;;;;26.86;42.67;101436.22;5057572;28;19913;-73
2023/06/13 11:35:34;;;;;;;;;;;;;;;26.87;42.78;101433.25;5067965;28;19920;-73
2023/06/13 11:38:00;;;;;;;;;;;;;;;26.89;42.65;101431.19;5065254;28;19917;-72
2023/06/13 11:40:32;;;;;;;;;;;;;;;26.91;42.92;101423.59;5035970;28;19921;-72
2023/06/13 11:42:57;;;;;;;;;;;;;;;26.94;42.84;101432.44;5072411;28;19924;-73
2023/06/13 11:45:22;;;;;;;;;;;;;;;26.96;42.86;101433.06;5057808;28;19917;-72
2023/06/13 11:47:55;;;;;;;;;;;;;;;26.97;42.85;101429.28;5065242;28;19912;-72
2023/06/13 11:50:25;;;;;;;;;;;;;;;26.99;42.67;101429.91;5063530;28;20004;-72
2023/06/13 11:53:03;;;;;;;;;;;;;;;27.02;42.71;101426.78;5053117;28;20368;-72
2023/06/13 11:55:28;;;;;;;;;;;;;;;27.04;42.61;101427.38;5064608;28;19958;-72
2023/06/13 11:57:56;;;;;;;;;;;;;;;27.06;42.82;101426.13;5051218;28;19913;-72
2023/06/13 12:00:25;;;;;;;;;;;;;;;27.09;42.65;101422.13;5058065;28;20016;-73
2023/06/13 12:02:51;;;;;;;;;;;;;;;27.10;42.66;101413.78;5068818;28;19917;-73
2023/06/13 12:05:16;;;;;;;;;;;;;;;27.13;42.55;101421.53;5065431;28;19913;-73
2023/06/13 12:07:43;;;;;;;;;;;;;;;27.15;42.54;101416.72;5056437;28;19916;-73
2023/06/13 12:10:08;;;;;;;;;;;;;;;27.19;42.52;101410.81;5066990;28;19962;-73
2023/06/13 12:12:34;;;;;;;;;;;;;;;27.21;42.74;101408.72;5058075;28;20089;-73
2023/06/13 12:15:01;;;;;;;;;;;;;;;27.25;42.49;101413.53;5067921;28;19996;-73
2023/06/13 12:17:26;;;;;;;;;;;;;;;27.27;42.33;101408.72;5065201;28;19964;-73
2023/06/13 12:20:06;;;;;;;;;;;;;;;27.29;42.37;101398.41;5063556;28;19945;-73
2023/06/13 12:22:33;;;;;;;;;;;;;;;27.32;42.50;101402.63;5063579;28;20575;-73
2023/06/13 12:24:58;;;;;;;;;;;;;;;27.34;42.34;101408.69;5048733;28;19916;-73
2023/06/13 12:27:23;;;;;;;;;;;;;;;27.35;42.62;101411.19;5058847;28;19913;-73
2023/06/13 12:29:48;;;;;;;;;;;;;;;27.37;42.62;101409.13;5048843;28;19916;-73